sensor_id;sensor_type;location;lat;lon;timestamp;temperature;humidity
40434;DHT22;26146;51.114;5.654;2023-03-01T00:03:27;0.50;99.90
40434;DHT22;26146;51.114;5.654;2023-03-01T00:07:28;0.30;99.90
40434;DHT22;26146;51.114;5.654;2023-03-01T00:11:31;0.20;99.90
40434;DHT22;26146;51.114;5.654;2023-03-01T00:15:32;0.20;99.90
40434;DHT22;26146;51.114;5.654;2023-03-01T00:19:33;0.30;99.90
40434;DHT22;26146;51.114;5.654;2023-03-01T00:23:35;0.20;99.90
40434;DHT22;26146;51.114;5.654;2023-03-01T00:27:36;0.30;99.90
40434;DHT22;26146;51.114;5.654;2023-03-01T00:31:36;0.40;99.90
40434;DHT22;26146;51.114;5.654;2023-03-01T00:35:38;0.40;99.90
40434;DHT22;26146;51.114;5.654;2023-03-01T00:39:39;0.50;99.90
40434;DHT22;26146;51.114;5.654;2023-03-01T00:43:40;0.40;99.90
40434;DHT22;26146;51.114;5.654;2023-03-01T00:47:41;0.40;99.90
40434;DHT22;26146;51.114;5.654;2023-03-01T00:51:44;0.40;99.90
40434;DHT22;26146;51.114;5.654;2023-03-01T00:55:45;0.40;99.90
40434;DHT22;26146;51.114;5.654;2023-03-01T00:59:46;0.60;99.90
40434;DHT22;26146;51.114;5.654;2023-03-01T01:03:53;0.50;99.90
40434;DHT22;26146;51.114;5.654;2023-03-01T01:08:01;0.50;99.90
40434;DHT22;26146;51.114;5.654;2023-03-01T01:12:03;0.50;99.90
40434;DHT22;26146;51.114;5.654;2023-03-01T01:16:05;0.40;99.90
40434;DHT22;26146;51.114;5.654;2023-03-01T01:20:07;0.40;99.90
40434;DHT22;26146;51.114;5.654;2023-03-01T01:24:08;0.10;99.90
40434;DHT22;26146;51.114;5.654;2023-03-01T01:28:09;0.10;99.90
40434;DHT22;26146;51.114;5.654;2023-03-01T01:32:13;-0.20;99.90
40434;DHT22;26146;51.114;5.654;2023-03-01T01:36:14;-0.30;99.90
40434;DHT22;26146;51.114;5.654;2023-03-01T01:40:15;-0.40;99.90
40434;DHT22;26146;51.114;5.654;2023-03-01T01:44:20;-0.40;99.90
40434;DHT22;26146;51.114;5.654;2023-03-01T01:48:24;-0.50;99.90
40434;DHT22;26146;51.114;5.654;2023-03-01T01:52:33;-0.40;99.90
40434;DHT22;26146;51.114;5.654;2023-03-01T01:56:37;-0.60;99.90
40434;DHT22;26146;51.114;5.654;2023-03-01T02:00:42;-0.60;99.90
40434;DHT22;26146;51.114;5.654;2023-03-01T02:04:43;-0.60;99.90
40434;DHT22;26146;51.114;5.654;2023-03-01T02:08:48;-0.70;99.90
40434;DHT22;26146;51.114;5.654;2023-03-01T02:12:50;-0.90;99.90
40434;DHT22;26146;51.114;5.654;2023-03-01T02:16:52;-0.90;99.90
40434;DHT22;26146;51.114;5.654;2023-03-01T02:29:13;-1.10;99.90
40434;DHT22;26146;51.114;5.654;2023-03-01T02:33:14;-1.00;99.90
40434;DHT22;26146;51.114;5.654;2023-03-01T02:37:16;-1.10;99.90
40434;DHT22;26146;51.114;5.654;2023-03-01T02:41:25;-1.10;99.90
40434;DHT22;26146;51.114;5.654;2023-03-01T02:45:27;-1.00;99.90
40434;DHT22;26146;51.114;5.654;2023-03-01T02:49:33;-1.30;99.90
40434;DHT22;26146;51.114;5.654;2023-03-01T02:53:45;-1.30;99.90
40434;DHT22;26146;51.114;5.654;2023-03-01T02:57:48;-1.30;99.90
40434;DHT22;26146;51.114;5.654;2023-03-01T03:01:55;-1.30;99.90
40434;DHT22;26146;51.114;5.654;2023-03-01T03:05:55;-1.30;99.90
40434;DHT22;26146;51.114;5.654;2023-03-01T03:09:59;-1.20;99.90
40434;DHT22;26146;51.114;5.654;2023-03-01T03:14:00;-1.20;99.90
40434;DHT22;26146;51.114;5.654;2023-03-01T03:18:03;-1.10;99.90
40434;DHT22;26146;51.114;5.654;2023-03-01T03:22:06;-1.20;99.90
40434;DHT22;26146;51.114;5.654;2023-03-01T03:26:09;-1.20;99.90
40434;DHT22;26146;51.114;5.654;2023-03-01T03:30:18;-1.20;99.90
40434;DHT22;26146;51.114;5.654;2023-03-01T03:34:22;-1.20;99.90
40434;DHT22;26146;51.114;5.654;2023-03-01T03:38:24;-1.20;99.90
40434;DHT22;26146;51.114;5.654;2023-03-01T03:42:25;-1.30;99.90
40434;DHT22;26146;51.114;5.654;2023-03-01T03:46:28;-1.40;99.90
40434;DHT22;26146;51.114;5.654;2023-03-01T03:50:29;-1.50;99.90
40434;DHT22;26146;51.114;5.654;2023-03-01T03:54:30;-1.50;99.90
40434;DHT22;26146;51.114;5.654;2023-03-01T03:58:33;-1.40;99.90
40434;DHT22;26146;51.114;5.654;2023-03-01T04:02:34;-1.30;99.90
40434;DHT22;26146;51.114;5.654;2023-03-01T04:06:35;-1.30;99.90
40434;DHT22;26146;51.114;5.654;2023-03-01T04:10:39;-1.40;99.90
40434;DHT22;26146;51.114;5.654;2023-03-01T04:14:40;-1.30;99.90
40434;DHT22;26146;51.114;5.654;2023-03-01T04:18:41;-1.30;99.90
40434;DHT22;26146;51.114;5.654;2023-03-01T04:22:42;-1.40;99.90
40434;DHT22;26146;51.114;5.654;2023-03-01T04:26:44;-1.30;99.90
40434;DHT22;26146;51.114;5.654;2023-03-01T04:30:45;-1.10;99.90
40434;DHT22;26146;51.114;5.654;2023-03-01T04:34:45;-1.10;99.90
40434;DHT22;26146;51.114;5.654;2023-03-01T04:38:49;-1.20;99.90
40434;DHT22;26146;51.114;5.654;2023-03-01T04:42:50;-1.20;99.90
40434;DHT22;26146;51.114;5.654;2023-03-01T04:46:51;-1.20;99.90
40434;DHT22;26146;51.114;5.654;2023-03-01T04:50:52;-1.20;99.90
40434;DHT22;26146;51.114;5.654;2023-03-01T04:54:53;-1.10;99.90
40434;DHT22;26146;51.114;5.654;2023-03-01T04:58:54;-1.10;99.90
40434;DHT22;26146;51.114;5.654;2023-03-01T05:02:57;-1.20;99.90
40434;DHT22;26146;51.114;5.654;2023-03-01T05:06:58;-1.10;99.90
40434;DHT22;26146;51.114;5.654;2023-03-01T05:10:59;-1.10;99.90
40434;DHT22;26146;51.114;5.654;2023-03-01T05:15:00;-1.20;99.90
40434;DHT22;26146;51.114;5.654;2023-03-01T05:19:04;-1.10;99.90
40434;DHT22;26146;51.114;5.654;2023-03-01T05:23:11;-1.00;99.90
40434;DHT22;26146;51.114;5.654;2023-03-01T05:27:12;-1.20;99.90
40434;DHT22;26146;51.114;5.654;2023-03-01T05:31:13;-1.10;99.90
40434;DHT22;26146;51.114;5.654;2023-03-01T05:35:17;-1.40;99.90
40434;DHT22;26146;51.114;5.654;2023-03-01T05:39:23;-1.40;99.90
40434;DHT22;26146;51.114;5.654;2023-03-01T05:43:25;-1.20;99.90
40434;DHT22;26146;51.114;5.654;2023-03-01T05:47:26;-1.30;99.90
40434;DHT22;26146;51.114;5.654;2023-03-01T05:51:29;-1.20;99.90
40434;DHT22;26146;51.114;5.654;2023-03-01T05:55:30;-1.40;99.90
40434;DHT22;26146;51.114;5.654;2023-03-01T05:59:32;-1.50;99.90
40434;DHT22;26146;51.114;5.654;2023-03-01T06:03:42;-1.40;99.90
40434;DHT22;26146;51.114;5.654;2023-03-01T06:07:43;-1.30;99.90
40434;DHT22;26146;51.114;5.654;2023-03-01T06:11:44;-1.30;99.90
40434;DHT22;26146;51.114;5.654;2023-03-01T06:15:48;-1.20;99.90
40434;DHT22;26146;51.114;5.654;2023-03-01T06:19:49;-1.20;99.90
40434;DHT22;26146;51.114;5.654;2023-03-01T06:23:50;-1.50;99.90
40434;DHT22;26146;51.114;5.654;2023-03-01T06:27:52;-1.60;99.90
40434;DHT22;26146;51.114;5.654;2023-03-01T06:31:53;-1.60;99.90
40434;DHT22;26146;51.114;5.654;2023-03-01T06:35:55;-1.60;99.90
40434;DHT22;26146;51.114;5.654;2023-03-01T06:39:57;-1.50;99.90
40434;DHT22;26146;51.114;5.654;2023-03-01T06:43:58;-1.50;99.90
40434;DHT22;26146;51.114;5.654;2023-03-01T06:48:07;-1.50;99.90
40434;DHT22;26146;51.114;5.654;2023-03-01T06:52:08;-1.40;99.90
40434;DHT22;26146;51.114;5.654;2023-03-01T06:56:09;-1.30;99.90
40434;DHT22;26146;51.114;5.654;2023-03-01T07:00:10;-1.20;99.90
40434;DHT22;26146;51.114;5.654;2023-03-01T07:04:12;-1.30;99.90
40434;DHT22;26146;51.114;5.654;2023-03-01T07:08:13;-1.20;99.90
40434;DHT22;26146;51.114;5.654;2023-03-01T07:12:14;-1.10;99.90
40434;DHT22;26146;51.114;5.654;2023-03-01T07:16:18;-1.10;99.90
40434;DHT22;26146;51.114;5.654;2023-03-01T07:20:21;-1.00;99.90
40434;DHT22;26146;51.114;5.654;2023-03-01T07:24:25;-0.80;99.90
40434;DHT22;26146;51.114;5.654;2023-03-01T07:28:26;-0.70;99.90
40434;DHT22;26146;51.114;5.654;2023-03-01T07:32:27;-0.60;99.90
40434;DHT22;26146;51.114;5.654;2023-03-01T07:36:28;-0.40;99.90
40434;DHT22;26146;51.114;5.654;2023-03-01T07:40:29;-0.30;99.90
40434;DHT22;26146;51.114;5.654;2023-03-01T07:44:30;-0.30;99.90
40434;DHT22;26146;51.114;5.654;2023-03-01T07:48:32;-0.10;99.90
40434;DHT22;26146;51.114;5.654;2023-03-01T07:52:33;-0.10;99.90
40434;DHT22;26146;51.114;5.654;2023-03-01T07:56:35;0.00;99.90
40434;DHT22;26146;51.114;5.654;2023-03-01T08:00:36;0.00;99.90
40434;DHT22;26146;51.114;5.654;2023-03-01T08:04:37;0.00;99.90
40434;DHT22;26146;51.114;5.654;2023-03-01T08:08:38;0.20;99.90
40434;DHT22;26146;51.114;5.654;2023-03-01T08:12:39;0.40;99.90
40434;DHT22;26146;51.114;5.654;2023-03-01T08:16:40;0.20;99.90
40434;DHT22;26146;51.114;5.654;2023-03-01T08:20:43;0.30;99.90
40434;DHT22;26146;51.114;5.654;2023-03-01T08:24:44;0.30;99.90
40434;DHT22;26146;51.114;5.654;2023-03-01T08:28:46;0.50;99.90
40434;DHT22;26146;51.114;5.654;2023-03-01T08:32:49;0.60;99.90
40434;DHT22;26146;51.114;5.654;2023-03-01T08:36:50;0.80;99.90
40434;DHT22;26146;51.114;5.654;2023-03-01T08:40:55;1.20;99.90
40434;DHT22;26146;51.114;5.654;2023-03-01T08:44:55;0.90;99.90
40434;DHT22;26146;51.114;5.654;2023-03-01T08:48:57;1.20;99.90
40434;DHT22;26146;51.114;5.654;2023-03-01T08:52:58;1.20;99.90
40434;DHT22;26146;51.114;5.654;2023-03-01T08:57:03;1.40;99.90
40434;DHT22;26146;51.114;5.654;2023-03-01T09:01:09;1.50;99.90
40434;DHT22;26146;51.114;5.654;2023-03-01T09:05:10;1.80;99.90
40434;DHT22;26146;51.114;5.654;2023-03-01T09:09:14;1.90;99.90
40434;DHT22;26146;51.114;5.654;2023-03-01T09:13:16;2.10;99.90
40434;DHT22;26146;51.114;5.654;2023-03-01T09:17:19;2.20;99.90
40434;DHT22;26146;51.114;5.654;2023-03-01T09:21:23;2.30;99.90
40434;DHT22;26146;51.114;5.654;2023-03-01T09:25:24;2.40;99.90
40434;DHT22;26146;51.114;5.654;2023-03-01T09:29:25;2.50;99.90
40434;DHT22;26146;51.114;5.654;2023-03-01T09:33:30;2.60;99.90
40434;DHT22;26146;51.114;5.654;2023-03-01T09:37:35;2.60;99.90
40434;DHT22;26146;51.114;5.654;2023-03-01T09:42:00;2.90;99.90
40434;DHT22;26146;51.114;5.654;2023-03-01T09:46:09;3.00;99.90
40434;DHT22;26146;51.114;5.654;2023-03-01T09:50:20;3.10;99.90
40434;DHT22;26146;51.114;5.654;2023-03-01T09:54:21;3.30;99.90
40434;DHT22;26146;51.114;5.654;2023-03-01T10:11:31;3.30;99.90
40434;DHT22;26146;51.114;5.654;2023-03-01T10:15:38;3.60;99.90
40434;DHT22;26146;51.114;5.654;2023-03-01T10:19:44;3.90;99.90
40434;DHT22;26146;51.114;5.654;2023-03-01T10:23:47;3.60;99.90
40434;DHT22;26146;51.114;5.654;2023-03-01T10:27:54;3.60;99.90
40434;DHT22;26146;51.114;5.654;2023-03-01T10:32:00;3.80;99.90
40434;DHT22;26146;51.114;5.654;2023-03-01T10:36:04;4.00;99.90
40434;DHT22;26146;51.114;5.654;2023-03-01T10:40:07;4.00;99.90
40434;DHT22;26146;51.114;5.654;2023-03-01T10:44:48;4.10;99.90
40434;DHT22;26146;51.114;5.654;2023-03-01T10:49:21;4.00;99.10
40434;DHT22;26146;51.114;5.654;2023-03-01T10:57:36;4.30;99.10
40434;DHT22;26146;51.114;5.654;2023-03-01T11:01:38;4.40;98.20
40434;DHT22;26146;51.114;5.654;2023-03-01T11:09:52;4.70;97.50
40434;DHT22;26146;51.114;5.654;2023-03-01T11:17:57;4.80;97.20
40434;DHT22;26146;51.114;5.654;2023-03-01T11:22:18;4.80;96.70
40434;DHT22;26146;51.114;5.654;2023-03-01T11:26:23;4.80;97.30
40434;DHT22;26146;51.114;5.654;2023-03-01T11:30:31;4.90;97.10
40434;DHT22;26146;51.114;5.654;2023-03-01T11:38:41;5.20;95.90
40434;DHT22;26146;51.114;5.654;2023-03-01T11:42:46;5.10;96.30
40434;DHT22;26146;51.114;5.654;2023-03-01T11:47:09;5.00;96.30
40434;DHT22;26146;51.114;5.654;2023-03-01T11:55:40;5.40;95.20
40434;DHT22;26146;51.114;5.654;2023-03-01T12:34:49;6.00;94.00
40434;DHT22;26146;51.114;5.654;2023-03-01T12:43:22;6.20;93.00
40434;DHT22;26146;51.114;5.654;2023-03-01T12:51:37;6.60;92.30
40434;DHT22;26146;51.114;5.654;2023-03-01T12:55:41;6.50;92.50
40434;DHT22;26146;51.114;5.654;2023-03-01T12:59:58;6.50;92.70
40434;DHT22;26146;51.114;5.654;2023-03-01T13:08:08;6.50;91.80
40434;DHT22;26146;51.114;5.654;2023-03-01T13:16:44;6.60;91.80
40434;DHT22;26146;51.114;5.654;2023-03-01T13:20:48;6.40;91.30
40434;DHT22;26146;51.114;5.654;2023-03-01T13:25:02;6.50;91.90
40434;DHT22;26146;51.114;5.654;2023-03-01T13:29:03;6.70;92.30
40434;DHT22;26146;51.114;5.654;2023-03-01T13:37:30;6.70;91.40
40434;DHT22;26146;51.114;5.654;2023-03-01T13:45:43;6.90;90.90
40434;DHT22;26146;51.114;5.654;2023-03-01T13:49:49;7.00;91.10
40434;DHT22;26146;51.114;5.654;2023-03-01T13:53:54;7.20;90.70
40434;DHT22;26146;51.114;5.654;2023-03-01T13:58:00;7.00;91.20
40434;DHT22;26146;51.114;5.654;2023-03-01T14:02:01;7.00;91.20
40434;DHT22;26146;51.114;5.654;2023-03-01T14:06:08;7.00;91.40
40434;DHT22;26146;51.114;5.654;2023-03-01T14:10:12;6.90;91.40
40434;DHT22;26146;51.114;5.654;2023-03-01T14:18:57;7.30;91.00
40434;DHT22;26146;51.114;5.654;2023-03-01T14:23:08;7.30;89.60
40434;DHT22;26146;51.114;5.654;2023-03-01T14:27:13;7.30;89.60
40434;DHT22;26146;51.114;5.654;2023-03-01T14:31:37;7.20;89.50
40434;DHT22;26146;51.114;5.654;2023-03-01T14:35:41;7.30;90.00
40434;DHT22;26146;51.114;5.654;2023-03-01T14:39:42;7.40;90.00
40434;DHT22;26146;51.114;5.654;2023-03-01T14:43:50;7.30;88.40
40434;DHT22;26146;51.114;5.654;2023-03-01T14:47:54;7.30;89.90
40434;DHT22;26146;51.114;5.654;2023-03-01T14:52:03;7.40;90.00
40434;DHT22;26146;51.114;5.654;2023-03-01T14:56:12;7.40;89.30
40434;DHT22;26146;51.114;5.654;2023-03-01T15:00:21;7.30;88.20
40434;DHT22;26146;51.114;5.654;2023-03-01T15:04:23;7.20;87.80
40434;DHT22;26146;51.114;5.654;2023-03-01T15:08:27;7.40;87.80
40434;DHT22;26146;51.114;5.654;2023-03-01T15:12:38;7.30;89.20
40434;DHT22;26146;51.114;5.654;2023-03-01T15:16:40;7.30;88.50
40434;DHT22;26146;51.114;5.654;2023-03-01T15:20:43;7.10;88.30
40434;DHT22;26146;51.114;5.654;2023-03-01T15:24:49;7.30;89.20
40434;DHT22;26146;51.114;5.654;2023-03-01T15:28:52;7.30;89.60
40434;DHT22;26146;51.114;5.654;2023-03-01T15:33:19;7.40;88.90
40434;DHT22;26146;51.114;5.654;2023-03-01T15:41:48;7.30;88.50
40434;DHT22;26146;51.114;5.654;2023-03-01T15:45:56;7.10;89.20
40434;DHT22;26146;51.114;5.654;2023-03-01T15:49:59;7.20;89.80
40434;DHT22;26146;51.114;5.654;2023-03-01T15:54:25;7.40;90.30
40434;DHT22;26146;51.114;5.654;2023-03-01T15:58:26;7.30;89.10
40434;DHT22;26146;51.114;5.654;2023-03-01T16:02:28;7.30;88.20
40434;DHT22;26146;51.114;5.654;2023-03-01T16:06:29;7.30;88.00
40434;DHT22;26146;51.114;5.654;2023-03-01T16:10:33;7.10;87.60
40434;DHT22;26146;51.114;5.654;2023-03-01T16:14:34;7.00;89.10
40434;DHT22;26146;51.114;5.654;2023-03-01T16:18:35;7.00;89.40
40434;DHT22;26146;51.114;5.654;2023-03-01T16:22:36;7.10;90.10
40434;DHT22;26146;51.114;5.654;2023-03-01T16:26:37;7.10;90.60
40434;DHT22;26146;51.114;5.654;2023-03-01T16:30:44;7.10;90.20
40434;DHT22;26146;51.114;5.654;2023-03-01T16:34:45;6.80;90.80
40434;DHT22;26146;51.114;5.654;2023-03-01T16:38:51;6.90;90.40
40434;DHT22;26146;51.114;5.654;2023-03-01T16:42:53;7.00;90.20
40434;DHT22;26146;51.114;5.654;2023-03-01T16:46:55;7.00;90.20
40434;DHT22;26146;51.114;5.654;2023-03-01T16:51:00;6.80;90.70
40434;DHT22;26146;51.114;5.654;2023-03-01T16:55:03;6.50;91.20
40434;DHT22;26146;51.114;5.654;2023-03-01T17:03:55;6.60;90.70
40434;DHT22;26146;51.114;5.654;2023-03-01T17:07:56;6.40;91.00
40434;DHT22;26146;51.114;5.654;2023-03-01T17:11:57;6.40;91.20
40434;DHT22;26146;51.114;5.654;2023-03-01T17:15:58;6.30;91.40
40434;DHT22;26146;51.114;5.654;2023-03-01T17:19:59;6.10;91.40
40434;DHT22;26146;51.114;5.654;2023-03-01T17:24:01;5.90;91.80
40434;DHT22;26146;51.114;5.654;2023-03-01T17:28:04;6.00;92.00
40434;DHT22;26146;51.114;5.654;2023-03-01T17:32:05;5.80;92.20
40434;DHT22;26146;51.114;5.654;2023-03-01T17:36:07;5.70;92.60
40434;DHT22;26146;51.114;5.654;2023-03-01T17:40:10;5.60;92.80
40434;DHT22;26146;51.114;5.654;2023-03-01T17:44:11;5.60;92.90
40434;DHT22;26146;51.114;5.654;2023-03-01T17:48:13;5.60;93.00
40434;DHT22;26146;51.114;5.654;2023-03-01T17:52:15;5.40;93.30
40434;DHT22;26146;51.114;5.654;2023-03-01T17:56:16;5.20;94.00
40434;DHT22;26146;51.114;5.654;2023-03-01T18:00:17;5.20;94.00
40434;DHT22;26146;51.114;5.654;2023-03-01T18:04:19;5.30;94.00
40434;DHT22;26146;51.114;5.654;2023-03-01T18:08:42;5.20;94.30
40434;DHT22;26146;51.114;5.654;2023-03-01T18:12:45;5.00;94.70
40434;DHT22;26146;51.114;5.654;2023-03-01T18:16:46;4.90;94.80
40434;DHT22;26146;51.114;5.654;2023-03-01T18:20:57;4.90;94.90
40434;DHT22;26146;51.114;5.654;2023-03-01T18:24:58;4.80;95.00
40434;DHT22;26146;51.114;5.654;2023-03-01T18:28:59;5.00;94.60
40434;DHT22;26146;51.114;5.654;2023-03-01T18:33:03;4.90;94.70
40434;DHT22;26146;51.114;5.654;2023-03-01T18:37:04;5.00;94.50
40434;DHT22;26146;51.114;5.654;2023-03-01T18:41:05;5.10;94.30
40434;DHT22;26146;51.114;5.654;2023-03-01T18:45:06;4.80;94.80
40434;DHT22;26146;51.114;5.654;2023-03-01T18:49:09;4.80;94.70
40434;DHT22;26146;51.114;5.654;2023-03-01T18:53:10;4.70;94.80
40434;DHT22;26146;51.114;5.654;2023-03-01T18:57:11;4.60;95.20
40434;DHT22;26146;51.114;5.654;2023-03-01T19:01:24;4.60;95.40
40434;DHT22;26146;51.114;5.654;2023-03-01T19:05:26;4.60;95.40
40434;DHT22;26146;51.114;5.654;2023-03-01T19:09:27;4.40;95.60
40434;DHT22;26146;51.114;5.654;2023-03-01T19:13:28;4.40;95.50
40434;DHT22;26146;51.114;5.654;2023-03-01T19:17:32;4.40;95.70
40434;DHT22;26146;51.114;5.654;2023-03-01T19:21:34;4.10;96.00
40434;DHT22;26146;51.114;5.654;2023-03-01T19:25:37;4.00;96.20
40434;DHT22;26146;51.114;5.654;2023-03-01T19:29:39;3.90;96.40
40434;DHT22;26146;51.114;5.654;2023-03-01T19:33:40;4.00;96.60
40434;DHT22;26146;51.114;5.654;2023-03-01T19:37:41;3.80;96.90
40434;DHT22;26146;51.114;5.654;2023-03-01T19:41:43;3.80;96.90
40434;DHT22;26146;51.114;5.654;2023-03-01T19:45:44;3.80;97.00
40434;DHT22;26146;51.114;5.654;2023-03-01T19:49:46;3.90;97.00
40434;DHT22;26146;51.114;5.654;2023-03-01T19:53:47;3.80;97.00
40434;DHT22;26146;51.114;5.654;2023-03-01T19:57:51;3.80;96.90
40434;DHT22;26146;51.114;5.654;2023-03-01T20:01:54;3.70;97.10
40434;DHT22;26146;51.114;5.654;2023-03-01T20:05:56;3.90;97.00
40434;DHT22;26146;51.114;5.654;2023-03-01T20:09:58;3.90;96.90
40434;DHT22;26146;51.114;5.654;2023-03-01T20:13:59;3.80;97.00
40434;DHT22;26146;51.114;5.654;2023-03-01T20:18:00;3.80;97.00
40434;DHT22;26146;51.114;5.654;2023-03-01T20:22:01;3.70;97.00
40434;DHT22;26146;51.114;5.654;2023-03-01T20:26:05;3.70;97.10
40434;DHT22;26146;51.114;5.654;2023-03-01T20:30:07;3.60;97.50
40434;DHT22;26146;51.114;5.654;2023-03-01T20:34:08;3.50;97.40
40434;DHT22;26146;51.114;5.654;2023-03-01T20:38:09;3.60;97.40
40434;DHT22;26146;51.114;5.654;2023-03-01T20:42:10;3.50;97.30
40434;DHT22;26146;51.114;5.654;2023-03-01T20:46:12;3.40;97.70
40434;DHT22;26146;51.114;5.654;2023-03-01T20:50:15;3.40;97.70
40434;DHT22;26146;51.114;5.654;2023-03-01T20:54:16;3.20;97.80
40434;DHT22;26146;51.114;5.654;2023-03-01T20:58:17;3.20;98.00
40434;DHT22;26146;51.114;5.654;2023-03-01T21:02:18;3.20;98.30
40434;DHT22;26146;51.114;5.654;2023-03-01T21:06:21;3.20;98.40
40434;DHT22;26146;51.114;5.654;2023-03-01T21:10:25;3.40;98.20
40434;DHT22;26146;51.114;5.654;2023-03-01T21:14:26;3.30;98.10
40434;DHT22;26146;51.114;5.654;2023-03-01T21:18:28;3.20;98.20
40434;DHT22;26146;51.114;5.654;2023-03-01T21:22:32;3.10;98.30
40434;DHT22;26146;51.114;5.654;2023-03-01T21:26:35;2.90;98.80
40434;DHT22;26146;51.114;5.654;2023-03-01T21:30:36;3.00;98.80
40434;DHT22;26146;51.114;5.654;2023-03-01T21:34:39;3.00;99.00
40434;DHT22;26146;51.114;5.654;2023-03-01T21:38:43;2.90;99.30
40434;DHT22;26146;51.114;5.654;2023-03-01T21:42:45;2.90;99.00
40434;DHT22;26146;51.114;5.654;2023-03-01T21:46:49;2.90;98.70
40434;DHT22;26146;51.114;5.654;2023-03-01T21:50:56;2.90;99.00
40434;DHT22;26146;51.114;5.654;2023-03-01T21:54:57;2.90;99.20
40434;DHT22;26146;51.114;5.654;2023-03-01T21:59:01;2.80;99.30
40434;DHT22;26146;51.114;5.654;2023-03-01T22:03:03;2.80;99.10
40434;DHT22;26146;51.114;5.654;2023-03-01T22:07:06;2.80;99.10
40434;DHT22;26146;51.114;5.654;2023-03-01T22:11:07;2.80;99.40
40434;DHT22;26146;51.114;5.654;2023-03-01T22:15:08;2.60;99.50
40434;DHT22;26146;51.114;5.654;2023-03-01T22:19:10;2.60;99.80
40434;DHT22;26146;51.114;5.654;2023-03-01T22:23:11;2.50;99.90
40434;DHT22;26146;51.114;5.654;2023-03-01T22:27:12;2.40;99.90
40434;DHT22;26146;51.114;5.654;2023-03-01T22:31:13;2.50;99.90
40434;DHT22;26146;51.114;5.654;2023-03-01T22:35:14;2.50;99.90
40434;DHT22;26146;51.114;5.654;2023-03-01T22:39:18;2.40;99.90
40434;DHT22;26146;51.114;5.654;2023-03-01T22:43:21;2.60;99.90
40434;DHT22;26146;51.114;5.654;2023-03-01T22:47:22;2.60;99.90
40434;DHT22;26146;51.114;5.654;2023-03-01T22:51:32;2.40;99.90
40434;DHT22;26146;51.114;5.654;2023-03-01T22:55:34;2.50;99.90
40434;DHT22;26146;51.114;5.654;2023-03-01T22:59:35;2.50;99.90
40434;DHT22;26146;51.114;5.654;2023-03-01T23:03:36;2.40;99.90
40434;DHT22;26146;51.114;5.654;2023-03-01T23:07:37;2.30;99.90
40434;DHT22;26146;51.114;5.654;2023-03-01T23:11:37;2.40;99.90
40434;DHT22;26146;51.114;5.654;2023-03-01T23:15:39;2.20;99.90
40434;DHT22;26146;51.114;5.654;2023-03-01T23:19:44;2.10;99.90
40434;DHT22;26146;51.114;5.654;2023-03-01T23:23:46;2.00;99.90
40434;DHT22;26146;51.114;5.654;2023-03-01T23:27:47;2.10;99.90
40434;DHT22;26146;51.114;5.654;2023-03-01T23:31:48;2.10;99.90
40434;DHT22;26146;51.114;5.654;2023-03-01T23:35:49;2.10;99.90
40434;DHT22;26146;51.114;5.654;2023-03-01T23:39:50;2.10;99.90
40434;DHT22;26146;51.114;5.654;2023-03-01T23:43:53;2.10;99.90
40434;DHT22;26146;51.114;5.654;2023-03-01T23:47:54;2.10;99.90
40434;DHT22;26146;51.114;5.654;2023-03-01T23:51:56;2.20;99.90
40434;DHT22;26146;51.114;5.654;2023-03-01T23:55:57;2.10;99.90
40434;DHT22;26146;51.114;5.654;2023-03-01T23:59:58;2.10;99.90
